createdAt,value
2022-10-31T00:01:34.409Z,22.42
2022-10-31T00:04:07.275Z,24.55
2022-10-31T00:06:39.329Z,24.92
2022-10-31T00:09:11.878Z,21.30
2022-10-31T00:11:43.885Z,19.63
2022-10-31T00:14:15.837Z,18.88
2022-10-31T00:16:47.941Z,22.58
2022-10-31T00:19:19.915Z,23.67
2022-10-31T00:21:53.306Z,19.90
2022-10-31T00:24:25.301Z,20.15
2022-10-31T00:26:57.346Z,17.65
2022-10-31T00:29:29.326Z,18.08
2022-10-31T00:32:01.740Z,18.08
2022-10-31T00:34:33.981Z,20.35
2022-10-31T00:37:06.038Z,22.75
2022-10-31T00:39:37.972Z,18.55
2022-10-31T00:42:10.166Z,18.42
2022-10-31T00:44:42.122Z,17.05
2022-10-31T00:47:14.195Z,18.30
2022-10-31T00:49:46.289Z,19.42
2022-10-31T00:52:18.604Z,21.58
2022-10-31T00:54:50.565Z,20.58
2022-10-31T00:57:22.634Z,17.60
2022-10-31T00:59:54.694Z,20.95
2022-10-31T01:02:26.865Z,19.13
2022-10-31T01:04:59.022Z,23.65
2022-10-31T01:07:31.172Z,15.60
2022-10-31T01:10:04.057Z,17.35
2022-10-31T01:12:44.784Z,16.98
2022-10-31T01:15:20.974Z,23.65
2022-10-31T01:17:52.945Z,19.58
2022-10-31T01:20:24.933Z,21.40
2022-10-31T01:22:56.908Z,25.00
2022-10-31T01:25:29.874Z,13.17
2022-10-31T01:28:02.444Z,16.77
2022-10-31T01:30:34.594Z,21.10
2022-10-31T01:33:06.595Z,15.18
2022-10-31T01:35:38.570Z,13.48
2022-10-31T01:38:10.594Z,13.48
2022-10-31T01:40:42.655Z,18.45
2022-10-31T01:43:15.372Z,15.85
2022-10-31T01:45:54.881Z,17.65
2022-10-31T01:48:29.257Z,14.48
2022-10-31T01:51:01.521Z,20.40
2022-10-31T01:53:34.209Z,15.93
2022-10-31T01:56:06.996Z,15.32
2022-10-31T01:58:40.049Z,21.92
2022-10-31T02:01:14.284Z,17.90
2022-10-31T02:03:48.762Z,23.50
2022-10-31T02:06:32.367Z,16.55
2022-10-31T02:09:06.617Z,19.27
2022-10-31T02:11:39.034Z,17.80
2022-10-31T02:14:11.416Z,13.48
2022-10-31T02:16:43.389Z,15.75
2022-10-31T02:19:23.184Z,11.60
2022-10-31T02:22:06.667Z,15.18
2022-10-31T02:24:59.154Z,15.93
2022-10-31T02:27:37.059Z,12.38
2022-10-31T02:30:15.916Z,16.60
2022-10-31T02:33:35.849Z,22.95
2022-10-31T02:36:22.949Z,15.63
2022-10-31T02:39:25.908Z,13.68
2022-10-31T02:42:13.732Z,16.48
2022-10-31T02:44:50.908Z,12.02
2022-10-31T02:47:33.704Z,11.07
2022-10-31T02:50:29.708Z,15.00
2022-10-31T02:53:03.009Z,16.95
2022-10-31T02:55:36.151Z,15.70
2022-10-31T03:01:00.737Z,14.85
2022-10-31T03:03:44.876Z,11.55
2022-10-31T03:06:25.718Z,13.25
2022-10-31T03:09:03.473Z,13.50
2022-10-31T03:11:48.361Z,15.57
2022-10-31T03:14:36.568Z,14.40
2022-10-31T03:17:16.530Z,12.63
2022-10-31T03:19:54.689Z,15.88
2022-10-31T03:22:30.649Z,16.83
2022-10-31T03:25:06.891Z,18.33
2022-10-31T03:27:41.296Z,14.52
2022-10-31T03:30:14.314Z,18.88
2022-10-31T03:33:10.845Z,18.13
2022-10-31T03:35:47.986Z,13.63
2022-10-31T03:38:20.943Z,13.77
2022-10-31T03:40:55.600Z,13.52
2022-10-31T03:43:33.417Z,12.90
2022-10-31T03:46:06.573Z,18.88
2022-10-31T03:48:39.511Z,19.25
2022-10-31T03:51:31.509Z,10.73
2022-10-31T03:54:18.769Z,15.70
2022-10-31T03:56:59.081Z,20.55
2022-10-31T03:59:36.402Z,13.38
2022-10-31T04:02:14.584Z,10.27
2022-10-31T04:04:49.575Z,15.32
2022-10-31T04:07:24.508Z,15.18
2022-10-31T04:09:59.922Z,14.35
2022-10-31T04:12:33.435Z,17.15
2022-10-31T04:15:16.652Z,12.90
2022-10-31T04:17:51.440Z,11.43
2022-10-31T04:20:35.155Z,18.30
2022-10-31T04:23:20.476Z,12.07
2022-10-31T04:25:54.477Z,12.18
2022-10-31T04:28:26.480Z,12.18
2022-10-31T04:30:58.533Z,8.60
2022-10-31T04:33:30.654Z,14.73
2022-10-31T04:36:02.701Z,12.60
2022-10-31T04:38:35.516Z,12.98
2022-10-31T04:41:12.901Z,11.15
2022-10-31T04:43:55.715Z,10.20
2022-10-31T04:46:27.799Z,11.95
2022-10-31T04:51:33.843Z,14.13
2022-10-31T04:54:06.282Z,18.52
2022-10-31T04:56:58.180Z,14.10
2022-10-31T04:59:30.225Z,10.80
2022-10-31T05:02:04.066Z,18.33
2022-10-31T05:04:50.210Z,13.10
2022-10-31T05:07:23.407Z,15.57
2022-10-31T05:09:55.403Z,12.77
2022-10-31T05:12:27.414Z,12.20
2022-10-31T05:15:24.250Z,16.20
2022-10-31T05:18:14.915Z,13.10
2022-10-31T05:21:15.515Z,15.27
2022-10-31T05:23:55.020Z,16.08
2022-10-31T05:26:29.259Z,19.70
2022-10-31T05:29:01.791Z,17.08
2022-10-31T05:31:34.405Z,13.83
2022-10-31T05:34:07.922Z,14.07
2022-10-31T05:36:58.404Z,13.02
2022-10-31T05:39:30.827Z,17.48
2022-10-31T05:42:07.154Z,14.48
2022-10-31T05:44:39.143Z,19.40
2022-10-31T05:47:38.495Z,12.68
2022-10-31T05:50:46.085Z,13.25
2022-10-31T05:53:18.228Z,21.15
2022-10-31T05:55:50.925Z,18.47
2022-10-31T05:58:25.493Z,13.45
2022-10-31T06:01:10.739Z,12.95
2022-10-31T06:03:43.751Z,12.98
2022-10-31T06:06:15.968Z,13.65
2022-10-31T06:08:47.945Z,12.70
2022-10-31T06:11:24.236Z,11.45
2022-10-31T06:14:06.126Z,11.43
2022-10-31T06:16:59.473Z,15.20
2022-10-31T06:22:51.481Z,15.65
2022-10-31T06:25:23.499Z,12.48
2022-10-31T06:27:56.012Z,15.20
2022-10-31T06:30:32.536Z,15.55
2022-10-31T06:33:07.841Z,13.10
2022-10-31T06:35:48.155Z,15.65
2022-10-31T06:38:21.660Z,18.45
2022-10-31T06:40:54.392Z,13.75
2022-10-31T06:43:28.207Z,15.57
2022-10-31T06:46:22.661Z,19.70
2022-10-31T06:49:19.592Z,18.55
2022-10-31T06:51:56.266Z,16.50
2022-10-31T06:54:28.653Z,19.20
2022-10-31T06:57:00.890Z,14.30
2022-10-31T06:59:34.039Z,20.73
2022-10-31T07:02:12.627Z,21.05
2022-10-31T07:04:47.208Z,13.27
2022-10-31T07:09:55.835Z,16.38
2022-10-31T07:12:43.467Z,16.65
2022-10-31T07:15:15.865Z,14.15
2022-10-31T07:17:48.776Z,18.55
2022-10-31T07:20:21.392Z,11.95
2022-10-31T07:22:53.772Z,13.33
2022-10-31T07:25:26.237Z,11.43
2022-10-31T07:28:18.041Z,19.27
2022-10-31T07:30:55.778Z,11.27
2022-10-31T07:33:28.083Z,18.67
2022-10-31T07:36:18.677Z,16.33
2022-10-31T07:38:53.323Z,20.10
2022-10-31T07:41:25.735Z,12.90
2022-10-31T07:43:58.428Z,14.70
2022-10-31T07:46:49.147Z,13.23
2022-10-31T07:49:30.174Z,13.80
2022-10-31T07:52:20.652Z,17.95
2022-10-31T07:55:11.767Z,17.92
2022-10-31T07:57:44.157Z,15.75
2022-10-31T08:00:17.120Z,15.17
2022-10-31T08:02:49.069Z,22.63
2022-10-31T08:05:41.048Z,13.13
2022-10-31T08:08:48.183Z,10.30
2022-10-31T08:11:20.684Z,21.13
2022-10-31T08:13:53.560Z,22.38
2022-10-31T08:16:25.745Z,16.20
2022-10-31T08:19:05.353Z,12.68
2022-10-31T08:21:42.677Z,14.05
2022-10-31T08:24:14.974Z,13.70
2022-10-31T08:26:48.150Z,23.88
2022-10-31T08:29:20.586Z,19.00
2022-10-31T08:31:53.011Z,19.33
2022-10-31T08:34:43.857Z,16.13
2022-10-31T08:37:39.360Z,24.35
2022-10-31T08:40:14.126Z,30.70
2022-10-31T08:42:46.339Z,21.92
2022-10-31T08:45:18.401Z,21.95
2022-10-31T08:47:50.691Z,28.52
2022-10-31T08:50:23.257Z,21.60
2022-10-31T08:53:05.092Z,25.90
2022-10-31T08:55:40.113Z,23.35
2022-10-31T08:58:28.303Z,15.23
2022-10-31T09:01:04.791Z,22.67
2022-10-31T09:03:37.089Z,21.45
2022-10-31T09:06:10.628Z,26.15
2022-10-31T09:08:43.231Z,17.33
2022-10-31T09:11:16.424Z,14.95
2022-10-31T09:14:07.415Z,20.70
2022-10-31T09:16:59.540Z,19.27
2022-10-31T09:19:46.000Z,15.60
2022-10-31T09:22:18.046Z,17.55
2022-10-31T09:24:50.054Z,16.95
2022-10-31T09:27:22.282Z,15.05
2022-10-31T09:29:54.383Z,15.85
2022-10-31T09:32:26.626Z,20.60
2022-10-31T09:34:58.819Z,17.85
2022-10-31T09:37:31.079Z,19.13
2022-10-31T09:40:04.258Z,21.63
2022-10-31T09:42:46.523Z,16.60
2022-10-31T09:45:36.145Z,14.52
2022-10-31T09:48:31.474Z,9.40
2022-10-31T09:51:31.620Z,13.05
2022-10-31T09:54:51.591Z,15.60
2022-10-31T09:57:31.019Z,15.38
2022-10-31T10:00:06.476Z,18.00
2022-10-31T10:02:49.023Z,16.43
2022-10-31T10:05:35.262Z,12.85
2022-10-31T10:08:17.676Z,11.57
2022-10-31T10:11:57.010Z,12.70
2022-10-31T10:14:47.244Z,15.63
2022-10-31T10:17:33.071Z,16.38
2022-10-31T10:20:45.682Z,17.17
2022-10-31T10:23:33.159Z,15.77
2022-10-31T10:26:14.062Z,18.38
2022-10-31T10:28:58.101Z,7.07
2022-10-31T10:31:41.419Z,12.05
2022-10-31T10:34:33.096Z,10.88
2022-10-31T10:37:18.615Z,17.67
2022-10-31T10:39:56.038Z,19.88
2022-10-31T10:42:47.388Z,11.25
2022-10-31T10:45:39.365Z,17.98
2022-10-31T10:48:17.378Z,13.88
2022-10-31T10:50:52.288Z,15.18
2022-10-31T10:53:33.467Z,14.95
2022-10-31T10:56:14.932Z,12.00
2022-10-31T10:58:47.082Z,10.40
2022-10-31T11:01:19.133Z,16.35
2022-10-31T11:03:51.774Z,17.08
2022-10-31T11:06:28.578Z,12.67
2022-10-31T11:09:11.515Z,14.20
2022-10-31T11:11:44.002Z,10.53
2022-10-31T11:14:18.767Z,19.10
2022-10-31T11:17:15.232Z,13.75
2022-10-31T11:19:47.196Z,12.45
2022-10-31T11:22:19.332Z,18.40
2022-10-31T11:24:51.827Z,11.23
2022-10-31T11:27:26.724Z,21.77
2022-10-31T11:30:07.035Z,17.48
2022-10-31T11:32:48.929Z,18.73
2022-10-31T11:35:24.155Z,21.13
2022-10-31T11:38:00.278Z,13.65
2022-10-31T11:40:32.658Z,14.45
2022-10-31T11:43:04.692Z,14.07
2022-10-31T11:45:38.094Z,14.70
2022-10-31T11:48:23.268Z,22.02
2022-10-31T11:50:59.697Z,16.23
2022-10-31T11:53:35.163Z,17.13
2022-10-31T11:56:14.540Z,15.00
2022-10-31T11:59:06.702Z,15.32
2022-10-31T12:01:44.193Z,17.77
2022-10-31T12:04:20.584Z,20.65
2022-10-31T12:06:53.965Z,11.52
2022-10-31T12:09:31.554Z,16.15
2022-10-31T12:12:09.338Z,12.93
2022-10-31T12:14:47.432Z,10.57
2022-10-31T12:17:25.708Z,15.32
2022-10-31T12:20:01.472Z,15.25
2022-10-31T12:22:57.965Z,15.18
2022-10-31T12:25:47.640Z,11.10
2022-10-31T12:28:25.925Z,16.35
2022-10-31T12:31:19.346Z,16.20
2022-10-31T12:34:31.065Z,13.32
2022-10-31T12:37:18.055Z,14.48
2022-10-31T12:40:20.574Z,18.77
2022-10-31T12:43:10.782Z,17.75
2022-10-31T12:45:55.757Z,15.73
2022-10-31T12:48:58.475Z,12.00
2022-10-31T12:51:39.637Z,20.08
2022-10-31T12:54:37.848Z,20.55
2022-10-31T12:57:12.613Z,19.63
2022-10-31T12:59:49.641Z,15.50
2022-10-31T13:02:27.914Z,18.27
2022-10-31T13:05:32.810Z,17.35
2022-10-31T13:08:23.388Z,16.83
2022-10-31T13:11:18.171Z,23.98
2022-10-31T13:14:11.970Z,15.15
2022-10-31T13:16:48.611Z,16.23
2022-10-31T13:19:30.296Z,18.90
2022-10-31T13:22:21.855Z,18.38
2022-10-31T13:25:17.219Z,25.83
2022-10-31T13:28:01.909Z,19.77
2022-10-31T13:30:39.164Z,23.63
2022-10-31T13:33:17.833Z,16.88
2022-10-31T13:36:04.346Z,13.18
2022-10-31T13:39:01.150Z,12.40
2022-10-31T13:41:52.191Z,14.57
2022-10-31T13:44:37.401Z,13.77
2022-10-31T13:47:39.441Z,12.70
2022-10-31T13:50:26.767Z,22.83
2022-10-31T13:53:19.095Z,17.40
2022-10-31T13:56:08.724Z,17.63
2022-10-31T13:58:56.943Z,17.77
2022-10-31T14:01:31.047Z,16.02
2022-10-31T14:04:19.187Z,21.33
2022-10-31T14:07:11.107Z,17.60
2022-10-31T14:09:48.943Z,12.93
2022-10-31T14:12:32.345Z,125.72
2022-10-31T14:15:26.573Z,26.35
2022-10-31T14:18:07.702Z,17.50
2022-10-31T14:20:46.847Z,17.38
2022-10-31T14:23:41.649Z,18.90
2022-10-31T14:26:27.323Z,20.77
2022-10-31T14:29:04.304Z,21.90
2022-10-31T14:31:56.379Z,19.30
2022-10-31T14:34:37.677Z,15.40
2022-10-31T14:37:41.752Z,23.38
2022-10-31T14:40:32.928Z,18.08
2022-10-31T14:43:26.329Z,17.13
2022-10-31T14:46:33.664Z,15.65
2022-10-31T14:49:26.478Z,21.42
2022-10-31T14:52:00.354Z,15.55
2022-10-31T14:54:37.478Z,24.20
2022-10-31T14:57:20.145Z,25.48
2022-10-31T15:00:03.758Z,21.73
2022-10-31T15:02:56.707Z,21.65
2022-10-31T15:05:29.522Z,20.55
2022-10-31T15:08:01.884Z,26.48
2022-10-31T15:10:38.291Z,14.43
2022-10-31T15:13:22.687Z,19.10
2022-10-31T15:15:56.776Z,16.50
2022-10-31T15:18:29.960Z,19.25
2022-10-31T15:21:07.387Z,18.70
2022-10-31T15:23:43.222Z,31.33
2022-10-31T15:26:23.852Z,19.13
2022-10-31T15:29:05.723Z,24.10
2022-10-31T15:31:37.879Z,24.10
2022-10-31T15:34:21.107Z,20.10
2022-10-31T15:36:53.791Z,20.55
2022-10-31T15:39:26.007Z,24.30
2022-10-31T15:41:59.483Z,21.70
2022-10-31T15:44:38.311Z,21.83
2022-10-31T15:47:22.610Z,23.50
2022-10-31T15:49:56.818Z,22.50
2022-10-31T15:52:45.391Z,17.33
2022-10-31T15:55:29.224Z,17.38
2022-10-31T15:58:13.749Z,17.48
2022-10-31T16:00:46.573Z,16.63
2022-10-31T16:03:18.752Z,18.75
2022-10-31T16:06:21.531Z,19.73
2022-10-31T16:08:53.767Z,14.90
2022-10-31T16:11:30.789Z,19.25
2022-10-31T16:14:26.486Z,23.77
2022-10-31T16:17:00.611Z,16.98
2022-10-31T16:19:38.920Z,21.55
2022-10-31T16:22:14.738Z,15.50
2022-10-31T16:25:02.298Z,24.25
2022-10-31T16:27:36.890Z,33.22
2022-10-31T16:30:46.809Z,22.17
2022-10-31T16:33:37.273Z,22.27
2022-10-31T16:36:36.343Z,32.05
2022-10-31T16:39:09.527Z,213.90
2022-10-31T16:41:44.048Z,965.42
2022-10-31T16:44:26.556Z,576.05
2022-10-31T16:47:16.535Z,142.77
2022-10-31T16:49:50.716Z,218.50
2022-10-31T16:52:22.998Z,75.80
2022-10-31T16:54:55.762Z,99.80
2022-10-31T16:57:30.432Z,328.30
2022-10-31T17:00:02.828Z,82.82
2022-10-31T17:02:35.214Z,112.90
2022-10-31T17:05:10.251Z,40.80
2022-10-31T17:07:42.439Z,792.53
2022-10-31T17:10:15.973Z,804.88
2022-10-31T17:12:50.474Z,680.47
2022-10-31T17:15:27.104Z,183.48
2022-10-31T17:17:59.461Z,80.57
2022-10-31T17:20:32.281Z,890.80
2022-10-31T17:23:04.742Z,146.10
2022-10-31T17:25:37.514Z,24.33
2022-10-31T17:28:13.763Z,34.13
2022-10-31T17:30:46.126Z,415.65
2022-10-31T17:33:18.423Z,396.80
2022-10-31T17:35:50.936Z,317.13
2022-10-31T17:38:23.079Z,412.90
2022-10-31T17:40:55.128Z,351.48
2022-10-31T17:43:27.705Z,135.50
2022-10-31T17:46:01.389Z,189.23
2022-10-31T17:48:35.075Z,407.45
2022-10-31T17:53:40.041Z,52.22
2022-10-31T17:56:12.259Z,50.53
2022-10-31T17:58:44.284Z,40.75
2022-10-31T18:01:17.815Z,30.63
2022-10-31T18:06:21.993Z,27.15
2022-10-31T18:08:56.266Z,30.95
2022-10-31T18:11:28.438Z,71.72
2022-10-31T18:14:01.017Z,232.60
2022-10-31T18:16:33.184Z,202.40
2022-10-31T18:19:06.317Z,726.75
2022-10-31T18:21:38.388Z,670.72
2022-10-31T18:24:10.755Z,480.42
2022-10-31T18:26:42.998Z,191.00
2022-10-31T18:29:15.209Z,143.90
2022-10-31T18:31:48.670Z,140.55
2022-10-31T18:34:20.909Z,373.80
2022-10-31T18:36:52.995Z,880.25
2022-10-31T18:39:25.236Z,1544.72
2022-10-31T18:41:57.586Z,861.33
2022-10-31T18:44:30.619Z,736.67
2022-10-31T18:47:02.791Z,1292.03
2022-10-31T18:49:34.815Z,567.67
2022-10-31T18:52:06.847Z,505.77
2022-10-31T18:54:38.868Z,465.38
2022-10-31T18:57:10.963Z,435.38
2022-10-31T18:59:43.074Z,397.83
2022-10-31T19:02:15.277Z,209.73
2022-10-31T19:04:47.348Z,939.90
2022-10-31T19:07:19.385Z,456.55
2022-10-31T19:09:51.387Z,516.55
2022-10-31T19:12:23.412Z,599.85
2022-10-31T19:14:55.696Z,599.58
2022-10-31T19:17:27.799Z,676.70
2022-10-31T19:19:59.839Z,966.70
2022-10-31T19:22:32.394Z,849.63
2022-10-31T19:25:07.665Z,451.80
2022-10-31T19:27:42.664Z,464.17
2022-10-31T19:30:14.666Z,140.85
2022-10-31T19:32:46.892Z,114.63
2022-10-31T19:35:19.185Z,109.28
2022-10-31T19:37:51.169Z,147.07
2022-10-31T19:40:23.215Z,80.63
2022-10-31T19:42:55.319Z,83.93
2022-10-31T19:45:27.600Z,79.07
2022-10-31T19:48:00.022Z,356.02
2022-10-31T19:50:32.321Z,152.80
2022-10-31T19:53:07.203Z,147.95
2022-10-31T19:55:42.987Z,124.53
2022-10-31T19:58:15.197Z,105.85
2022-10-31T20:00:47.476Z,79.47
2022-10-31T20:03:22.427Z,68.43
2022-10-31T20:05:54.743Z,85.25
2022-10-31T20:08:26.945Z,77.45
2022-10-31T20:11:03.395Z,72.15
2022-10-31T20:13:35.360Z,73.80
2022-10-31T20:16:10.440Z,79.40
2022-10-31T20:18:44.281Z,70.20
2022-10-31T20:21:18.978Z,64.78
2022-10-31T20:24:02.254Z,61.65
2022-10-31T20:26:35.543Z,61.35
2022-10-31T20:29:08.193Z,62.97
2022-10-31T20:31:40.225Z,71.68
2022-10-31T20:34:12.453Z,71.90
2022-10-31T20:36:44.487Z,80.90
2022-10-31T20:39:16.702Z,55.00
2022-10-31T20:41:48.862Z,59.95
2022-10-31T20:44:21.009Z,57.40
2022-10-31T20:46:53.477Z,65.75
2022-10-31T20:49:25.592Z,64.63
2022-10-31T20:51:57.780Z,54.67
2022-10-31T20:54:29.798Z,54.03
2022-10-31T20:57:01.747Z,53.17
2022-10-31T20:59:33.717Z,49.95
2022-10-31T21:02:06.040Z,52.63
2022-10-31T21:04:38.195Z,42.38
2022-10-31T21:07:10.176Z,43.53
2022-10-31T21:09:42.187Z,41.65
2022-10-31T21:12:14.167Z,42.47
2022-10-31T21:14:46.184Z,40.53
2022-10-31T21:17:18.179Z,49.08
2022-10-31T21:19:50.150Z,47.42
2022-10-31T21:22:22.498Z,37.22
2022-10-31T21:24:54.805Z,42.25
2022-10-31T21:27:26.933Z,40.90
2022-10-31T21:29:59.064Z,46.75
2022-10-31T21:32:31.258Z,36.45
2022-10-31T21:35:03.422Z,38.85
2022-10-31T21:37:36.431Z,39.83
2022-10-31T21:40:09.077Z,45.97
2022-10-31T21:42:41.190Z,44.22
2022-10-31T21:45:13.322Z,36.92
2022-10-31T21:47:45.489Z,40.75
2022-10-31T21:50:18.243Z,42.67
2022-10-31T21:52:50.304Z,41.20
2022-10-31T21:55:22.525Z,38.20
2022-10-31T21:57:54.500Z,48.75
2022-10-31T22:00:27.087Z,41.22
2022-10-31T22:02:59.165Z,37.08
2022-10-31T22:05:31.195Z,39.28
2022-10-31T22:08:03.860Z,32.08
2022-10-31T22:10:36.275Z,30.48
2022-10-31T22:13:08.410Z,38.70
2022-10-31T22:15:40.443Z,41.80
2022-10-31T22:18:12.710Z,33.25
2022-10-31T22:20:45.140Z,37.42
2022-10-31T22:23:17.156Z,35.58
2022-10-31T22:25:49.500Z,36.92
2022-10-31T22:28:21.518Z,39.63
2022-10-31T22:30:53.632Z,50.85
2022-10-31T22:33:26.394Z,40.17
2022-10-31T22:36:05.810Z,44.93
2022-10-31T22:38:40.245Z,34.15
2022-10-31T22:41:21.025Z,36.58
2022-10-31T22:43:54.554Z,37.95
2022-10-31T22:46:29.491Z,36.72
2022-10-31T22:49:04.578Z,36.58
2022-10-31T22:51:39.221Z,32.92
2022-10-31T22:54:16.424Z,27.25
2022-10-31T22:56:48.413Z,31.02
2022-10-31T22:59:20.754Z,35.03
2022-10-31T23:01:54.486Z,35.63
2022-10-31T23:04:26.745Z,26.90
2022-10-31T23:06:58.794Z,25.50
2022-10-31T23:09:31.007Z,32.70
2022-10-31T23:12:29.107Z,27.30
2022-10-31T23:15:01.104Z,27.80
2022-10-31T23:17:33.199Z,31.35
2022-10-31T23:20:07.038Z,27.45
2022-10-31T23:25:10.938Z,27.73
2022-10-31T23:27:42.921Z,22.58
2022-10-31T23:30:14.943Z,23.20
2022-10-31T23:32:46.925Z,29.98
2022-10-31T23:35:18.972Z,29.05
2022-10-31T23:37:50.932Z,18.58
2022-10-31T23:40:22.901Z,22.23
2022-10-31T23:42:54.957Z,19.25
2022-10-31T23:45:28.589Z,22.83
2022-10-31T23:50:32.857Z,21.63
2022-10-31T23:53:05.005Z,20.58
2022-10-31T23:55:37.655Z,21.88
2022-10-31T23:58:09.645Z,23.00
